sensor_id;sensor_type;location;lat;lon;timestamp;P1;durP1;ratioP1;P2;durP2;ratioP2
6177;SDS011;3122;48.208;11.174;2023-09-19T00:04:32;2.43;;;2.10;;
6177;SDS011;3122;48.208;11.174;2023-09-19T00:09:32;3.23;;;2.30;;
6177;SDS011;3122;48.208;11.174;2023-09-19T00:14:37;4.33;;;1.90;;
6177;SDS011;3122;48.208;11.174;2023-09-19T00:19:37;1.87;;;1.77;;
6177;SDS011;3122;48.208;11.174;2023-09-19T00:24:38;2.27;;;1.97;;
6177;SDS011;3122;48.208;11.174;2023-09-19T00:29:38;1.97;;;1.80;;
6177;SDS011;3122;48.208;11.174;2023-09-19T00:34:39;3.03;;;1.73;;
6177;SDS011;3122;48.208;11.174;2023-09-19T00:39:40;2.30;;;2.00;;
6177;SDS011;3122;48.208;11.174;2023-09-19T00:44:41;2.50;;;1.97;;
6177;SDS011;3122;48.208;11.174;2023-09-19T00:49:41;1.80;;;1.63;;
6177;SDS011;3122;48.208;11.174;2023-09-19T00:54:42;3.00;;;1.83;;
6177;SDS011;3122;48.208;11.174;2023-09-19T00:59:42;2.07;;;1.90;;
6177;SDS011;3122;48.208;11.174;2023-09-19T01:04:44;2.00;;;1.90;;
6177;SDS011;3122;48.208;11.174;2023-09-19T01:09:45;3.30;;;2.10;;
6177;SDS011;3122;48.208;11.174;2023-09-19T01:30:32;4.07;;;2.10;;
6177;SDS011;3122;48.208;11.174;2023-09-19T01:35:38;3.30;;;2.17;;
6177;SDS011;3122;48.208;11.174;2023-09-19T01:40:40;2.20;;;2.10;;
6177;SDS011;3122;48.208;11.174;2023-09-19T01:51:31;2.20;;;2.00;;
6177;SDS011;3122;48.208;11.174;2023-09-19T01:56:45;2.60;;;2.10;;
6177;SDS011;3122;48.208;11.174;2023-09-19T02:01:51;2.00;;;1.80;;
6177;SDS011;3122;48.208;11.174;2023-09-19T02:06:53;2.33;;;1.70;;
6177;SDS011;3122;48.208;11.174;2023-09-19T02:11:54;3.13;;;2.57;;
6177;SDS011;3122;48.208;11.174;2023-09-19T02:16:55;3.47;;;2.00;;
6177;SDS011;3122;48.208;11.174;2023-09-19T02:21:56;1.93;;;1.83;;
6177;SDS011;3122;48.208;11.174;2023-09-19T02:26:57;2.83;;;2.10;;
6177;SDS011;3122;48.208;11.174;2023-09-19T02:31:59;3.10;;;1.80;;
6177;SDS011;3122;48.208;11.174;2023-09-19T02:36:59;3.70;;;1.70;;
6177;SDS011;3122;48.208;11.174;2023-09-19T02:42:00;1.97;;;1.73;;
6177;SDS011;3122;48.208;11.174;2023-09-19T02:47:04;1.90;;;1.70;;
6177;SDS011;3122;48.208;11.174;2023-09-19T02:52:04;2.17;;;2.00;;
6177;SDS011;3122;48.208;11.174;2023-09-19T02:57:07;4.30;;;1.87;;
6177;SDS011;3122;48.208;11.174;2023-09-19T03:02:08;2.40;;;2.20;;
6177;SDS011;3122;48.208;11.174;2023-09-19T03:07:09;2.10;;;1.90;;
6177;SDS011;3122;48.208;11.174;2023-09-19T03:12:11;3.23;;;2.43;;
6177;SDS011;3122;48.208;11.174;2023-09-19T03:17:16;2.20;;;2.10;;
6177;SDS011;3122;48.208;11.174;2023-09-19T03:22:17;3.60;;;2.50;;
6177;SDS011;3122;48.208;11.174;2023-09-19T03:27:17;3.30;;;2.53;;
6177;SDS011;3122;48.208;11.174;2023-09-19T03:32:18;3.30;;;2.47;;
6177;SDS011;3122;48.208;11.174;2023-09-19T03:37:19;4.50;;;2.40;;
6177;SDS011;3122;48.208;11.174;2023-09-19T03:42:19;2.30;;;2.10;;
6177;SDS011;3122;48.208;11.174;2023-09-19T03:47:25;2.47;;;2.27;;
6177;SDS011;3122;48.208;11.174;2023-09-19T03:52:25;3.10;;;2.40;;
6177;SDS011;3122;48.208;11.174;2023-09-19T03:57:26;3.50;;;2.13;;
6177;SDS011;3122;48.208;11.174;2023-09-19T04:02:28;2.47;;;2.27;;
6177;SDS011;3122;48.208;11.174;2023-09-19T04:07:33;2.60;;;2.40;;
6177;SDS011;3122;48.208;11.174;2023-09-19T04:12:34;2.63;;;2.00;;
6177;SDS011;3122;48.208;11.174;2023-09-19T04:17:35;2.23;;;2.10;;
6177;SDS011;3122;48.208;11.174;2023-09-19T04:22:35;2.20;;;2.00;;
6177;SDS011;3122;48.208;11.174;2023-09-19T04:27:36;3.40;;;2.40;;
6177;SDS011;3122;48.208;11.174;2023-09-19T04:32:36;2.63;;;2.43;;
6177;SDS011;3122;48.208;11.174;2023-09-19T04:37:41;3.83;;;2.30;;
6177;SDS011;3122;48.208;11.174;2023-09-19T04:42:41;5.87;;;2.57;;
6177;SDS011;3122;48.208;11.174;2023-09-19T04:47:42;2.73;;;2.00;;
6177;SDS011;3122;48.208;11.174;2023-09-19T04:52:44;3.20;;;1.70;;
6177;SDS011;3122;48.208;11.174;2023-09-19T04:57:45;2.60;;;2.10;;
6177;SDS011;3122;48.208;11.174;2023-09-19T05:02:49;2.00;;;1.90;;
6177;SDS011;3122;48.208;11.174;2023-09-19T05:07:50;7.00;;;2.00;;
6177;SDS011;3122;48.208;11.174;2023-09-19T05:12:54;2.60;;;1.90;;
6177;SDS011;3122;48.208;11.174;2023-09-19T05:17:55;2.03;;;1.93;;
6177;SDS011;3122;48.208;11.174;2023-09-19T05:22:59;1.90;;;1.80;;
6177;SDS011;3122;48.208;11.174;2023-09-19T05:28:09;2.10;;;1.80;;
6177;SDS011;3122;48.208;11.174;2023-09-19T05:33:12;3.43;;;2.10;;
6177;SDS011;3122;48.208;11.174;2023-09-19T05:38:13;2.30;;;1.93;;
6177;SDS011;3122;48.208;11.174;2023-09-19T05:43:15;1.60;;;1.50;;
6177;SDS011;3122;48.208;11.174;2023-09-19T05:48:16;1.80;;;1.60;;
6177;SDS011;3122;48.208;11.174;2023-09-19T05:53:17;1.80;;;1.70;;
6177;SDS011;3122;48.208;11.174;2023-09-19T05:58:18;3.23;;;2.17;;
6177;SDS011;3122;48.208;11.174;2023-09-19T06:03:19;4.00;;;1.77;;
6177;SDS011;3122;48.208;11.174;2023-09-19T06:08:20;3.10;;;1.70;;
6177;SDS011;3122;48.208;11.174;2023-09-19T06:13:21;1.57;;;1.50;;
6177;SDS011;3122;48.208;11.174;2023-09-19T06:18:21;1.70;;;1.60;;
6177;SDS011;3122;48.208;11.174;2023-09-19T06:23:26;2.80;;;1.73;;
6177;SDS011;3122;48.208;11.174;2023-09-19T06:28:29;2.50;;;1.60;;
6177;SDS011;3122;48.208;11.174;2023-09-19T06:33:29;1.67;;;1.57;;
6177;SDS011;3122;48.208;11.174;2023-09-19T06:38:31;2.80;;;1.70;;
6177;SDS011;3122;48.208;11.174;2023-09-19T06:43:34;1.97;;;1.60;;
6177;SDS011;3122;48.208;11.174;2023-09-19T06:48:35;1.70;;;1.60;;
6177;SDS011;3122;48.208;11.174;2023-09-19T06:53:36;2.20;;;2.00;;
6177;SDS011;3122;48.208;11.174;2023-09-19T06:58:37;2.30;;;1.67;;
6177;SDS011;3122;48.208;11.174;2023-09-19T07:03:37;1.97;;;1.83;;
6177;SDS011;3122;48.208;11.174;2023-09-19T07:08:38;1.50;;;1.40;;
6177;SDS011;3122;48.208;11.174;2023-09-19T07:13:39;2.50;;;1.67;;
6177;SDS011;3122;48.208;11.174;2023-09-19T07:18:40;3.87;;;1.70;;
6177;SDS011;3122;48.208;11.174;2023-09-19T07:23:41;3.27;;;1.70;;
6177;SDS011;3122;48.208;11.174;2023-09-19T07:28:41;1.50;;;1.40;;
6177;SDS011;3122;48.208;11.174;2023-09-19T07:33:42;3.03;;;1.60;;
6177;SDS011;3122;48.208;11.174;2023-09-19T07:38:43;2.17;;;1.93;;
6177;SDS011;3122;48.208;11.174;2023-09-19T07:43:43;7.07;;;1.80;;
6177;SDS011;3122;48.208;11.174;2023-09-19T07:48:44;1.87;;;1.67;;
6177;SDS011;3122;48.208;11.174;2023-09-19T07:53:48;1.57;;;1.47;;
6177;SDS011;3122;48.208;11.174;2023-09-19T07:58:49;3.90;;;2.03;;
6177;SDS011;3122;48.208;11.174;2023-09-19T08:03:49;4.00;;;1.40;;
6177;SDS011;3122;48.208;11.174;2023-09-19T08:08:50;2.27;;;1.70;;
6177;SDS011;3122;48.208;11.174;2023-09-19T08:13:54;1.70;;;1.60;;
6177;SDS011;3122;48.208;11.174;2023-09-19T08:18:55;2.20;;;1.80;;
6177;SDS011;3122;48.208;11.174;2023-09-19T08:23:56;1.67;;;1.57;;
6177;SDS011;3122;48.208;11.174;2023-09-19T08:28:57;1.77;;;1.67;;
6177;SDS011;3122;48.208;11.174;2023-09-19T08:33:57;3.33;;;1.53;;
6177;SDS011;3122;48.208;11.174;2023-09-19T08:38:59;2.30;;;1.40;;
6177;SDS011;3122;48.208;11.174;2023-09-19T08:44:00;1.60;;;1.50;;
6177;SDS011;3122;48.208;11.174;2023-09-19T08:49:05;2.70;;;1.50;;
6177;SDS011;3122;48.208;11.174;2023-09-19T08:54:24;1.83;;;1.43;;
6177;SDS011;3122;48.208;11.174;2023-09-19T08:59:29;1.73;;;1.63;;
6177;SDS011;3122;48.208;11.174;2023-09-19T09:04:31;1.60;;;1.50;;
6177;SDS011;3122;48.208;11.174;2023-09-19T09:09:34;1.90;;;1.47;;
6177;SDS011;3122;48.208;11.174;2023-09-19T09:14:35;3.67;;;1.70;;
6177;SDS011;3122;48.208;11.174;2023-09-19T09:19:36;4.60;;;1.60;;
6177;SDS011;3122;48.208;11.174;2023-09-19T09:24:38;2.93;;;1.60;;
6177;SDS011;3122;48.208;11.174;2023-09-19T09:29:54;2.50;;;1.50;;
6177;SDS011;3122;48.208;11.174;2023-09-19T09:34:56;4.40;;;1.60;;
6177;SDS011;3122;48.208;11.174;2023-09-19T09:40:01;1.63;;;1.53;;
6177;SDS011;3122;48.208;11.174;2023-09-19T09:50:33;2.17;;;1.40;;
6177;SDS011;3122;48.208;11.174;2023-09-19T09:56:04;2.27;;;1.50;;
6177;SDS011;3122;48.208;11.174;2023-09-19T10:01:06;1.90;;;1.70;;
6177;SDS011;3122;48.208;11.174;2023-09-19T10:06:11;1.83;;;1.43;;
6177;SDS011;3122;48.208;11.174;2023-09-19T10:11:40;4.83;;;1.60;;
6177;SDS011;3122;48.208;11.174;2023-09-19T10:16:45;1.73;;;1.60;;
6177;SDS011;3122;48.208;11.174;2023-09-19T10:21:48;1.83;;;1.50;;
6177;SDS011;3122;48.208;11.174;2023-09-19T10:26:50;1.80;;;1.70;;
6177;SDS011;3122;48.208;11.174;2023-09-19T10:31:52;1.53;;;1.43;;
6177;SDS011;3122;48.208;11.174;2023-09-19T10:36:53;1.90;;;1.77;;
6177;SDS011;3122;48.208;11.174;2023-09-19T10:41:55;2.63;;;1.60;;
6177;SDS011;3122;48.208;11.174;2023-09-19T10:46:59;2.13;;;1.80;;
6177;SDS011;3122;48.208;11.174;2023-09-19T10:52:00;1.83;;;1.73;;
6177;SDS011;3122;48.208;11.174;2023-09-19T10:57:02;1.77;;;1.67;;
6177;SDS011;3122;48.208;11.174;2023-09-19T11:02:17;1.70;;;1.60;;
6177;SDS011;3122;48.208;11.174;2023-09-19T11:07:18;2.17;;;1.50;;
6177;SDS011;3122;48.208;11.174;2023-09-19T11:17:41;4.97;;;1.50;;
6177;SDS011;3122;48.208;11.174;2023-09-19T11:33:17;1.53;;;1.43;;
6177;SDS011;3122;48.208;11.174;2023-09-19T11:38:56;3.60;;;1.77;;
6177;SDS011;3122;48.208;11.174;2023-09-19T11:44:34;1.57;;;1.47;;
6177;SDS011;3122;48.208;11.174;2023-09-19T11:49:10;1.73;;;1.40;;
6177;SDS011;3122;48.208;11.174;2023-09-19T11:54:15;2.40;;;1.30;;
6177;SDS011;3122;48.208;11.174;2023-09-19T12:09:36;2.33;;;1.53;;
6177;SDS011;3122;48.208;11.174;2023-09-19T12:14:47;1.67;;;1.50;;
6177;SDS011;3122;48.208;11.174;2023-09-19T12:19:51;1.73;;;1.60;;
6177;SDS011;3122;48.208;11.174;2023-09-19T12:25:03;1.70;;;1.60;;
6177;SDS011;3122;48.208;11.174;2023-09-19T12:30:07;1.90;;;1.70;;
6177;SDS011;3122;48.208;11.174;2023-09-19T12:35:09;2.57;;;1.90;;
6177;SDS011;3122;48.208;11.174;2023-09-19T12:40:20;5.90;;;1.77;;
6177;SDS011;3122;48.208;11.174;2023-09-19T12:45:27;1.73;;;1.63;;
6177;SDS011;3122;48.208;11.174;2023-09-19T12:50:30;1.40;;;1.30;;
6177;SDS011;3122;48.208;11.174;2023-09-19T12:55:33;2.00;;;1.80;;
6177;SDS011;3122;48.208;11.174;2023-09-19T13:00:34;1.80;;;1.70;;
6177;SDS011;3122;48.208;11.174;2023-09-19T13:05:48;1.87;;;1.70;;
6177;SDS011;3122;48.208;11.174;2023-09-19T13:11:06;2.50;;;1.70;;
6177;SDS011;3122;48.208;11.174;2023-09-19T13:16:15;2.10;;;1.60;;
6177;SDS011;3122;48.208;11.174;2023-09-19T13:21:54;1.60;;;1.50;;
6177;SDS011;3122;48.208;11.174;2023-09-19T13:26:51;2.07;;;1.60;;
6177;SDS011;3122;48.208;11.174;2023-09-19T13:31:52;2.47;;;1.53;;
6177;SDS011;3122;48.208;11.174;2023-09-19T13:36:53;1.97;;;1.57;;
6177;SDS011;3122;48.208;11.174;2023-09-19T13:41:54;1.70;;;1.60;;
6177;SDS011;3122;48.208;11.174;2023-09-19T13:46:54;3.33;;;1.60;;
6177;SDS011;3122;48.208;11.174;2023-09-19T13:51:55;1.87;;;1.77;;
6177;SDS011;3122;48.208;11.174;2023-09-19T13:56:56;1.50;;;1.40;;
6177;SDS011;3122;48.208;11.174;2023-09-19T14:01:57;2.90;;;1.90;;
6177;SDS011;3122;48.208;11.174;2023-09-19T14:06:57;2.00;;;1.90;;
6177;SDS011;3122;48.208;11.174;2023-09-19T14:11:58;2.03;;;1.70;;
6177;SDS011;3122;48.208;11.174;2023-09-19T14:16:58;2.77;;;1.93;;
6177;SDS011;3122;48.208;11.174;2023-09-19T14:22:00;1.87;;;1.70;;
6177;SDS011;3122;48.208;11.174;2023-09-19T14:27:07;1.97;;;1.87;;
6177;SDS011;3122;48.208;11.174;2023-09-19T14:32:09;2.90;;;1.87;;
6177;SDS011;3122;48.208;11.174;2023-09-19T14:37:10;1.80;;;1.70;;
6177;SDS011;3122;48.208;11.174;2023-09-19T14:42:11;2.07;;;1.90;;
6177;SDS011;3122;48.208;11.174;2023-09-19T14:47:12;2.30;;;1.40;;
6177;SDS011;3122;48.208;11.174;2023-09-19T14:52:13;2.80;;;2.10;;
6177;SDS011;3122;48.208;11.174;2023-09-19T14:57:15;3.90;;;2.00;;
6177;SDS011;3122;48.208;11.174;2023-09-19T15:02:16;2.00;;;1.80;;
6177;SDS011;3122;48.208;11.174;2023-09-19T15:07:17;2.30;;;1.87;;
6177;SDS011;3122;48.208;11.174;2023-09-19T15:12:17;2.17;;;1.73;;
6177;SDS011;3122;48.208;11.174;2023-09-19T15:17:18;1.97;;;1.50;;
6177;SDS011;3122;48.208;11.174;2023-09-19T15:22:19;1.60;;;1.50;;
6177;SDS011;3122;48.208;11.174;2023-09-19T15:27:20;4.20;;;2.40;;
6177;SDS011;3122;48.208;11.174;2023-09-19T15:32:21;1.97;;;1.77;;
6177;SDS011;3122;48.208;11.174;2023-09-19T15:37:21;1.83;;;1.50;;
6177;SDS011;3122;48.208;11.174;2023-09-19T15:42:22;1.70;;;1.60;;
6177;SDS011;3122;48.208;11.174;2023-09-19T15:47:23;1.70;;;1.50;;
6177;SDS011;3122;48.208;11.174;2023-09-19T15:52:23;1.87;;;1.77;;
6177;SDS011;3122;48.208;11.174;2023-09-19T15:57:26;1.70;;;1.60;;
6177;SDS011;3122;48.208;11.174;2023-09-19T16:02:28;1.70;;;1.60;;
6177;SDS011;3122;48.208;11.174;2023-09-19T16:07:29;3.20;;;1.87;;
6177;SDS011;3122;48.208;11.174;2023-09-19T16:12:30;3.13;;;2.23;;
6177;SDS011;3122;48.208;11.174;2023-09-19T16:17:31;2.10;;;1.90;;
6177;SDS011;3122;48.208;11.174;2023-09-19T16:22:31;1.77;;;1.67;;
6177;SDS011;3122;48.208;11.174;2023-09-19T16:27:32;1.87;;;1.77;;
6177;SDS011;3122;48.208;11.174;2023-09-19T16:32:32;2.20;;;1.97;;
6177;SDS011;3122;48.208;11.174;2023-09-19T16:37:33;1.73;;;1.63;;
6177;SDS011;3122;48.208;11.174;2023-09-19T16:42:34;1.97;;;1.87;;
6177;SDS011;3122;48.208;11.174;2023-09-19T16:47:34;1.83;;;1.73;;
6177;SDS011;3122;48.208;11.174;2023-09-19T16:52:35;2.70;;;1.70;;
6177;SDS011;3122;48.208;11.174;2023-09-19T16:57:35;2.17;;;2.07;;
6177;SDS011;3122;48.208;11.174;2023-09-19T17:02:36;2.40;;;1.70;;
6177;SDS011;3122;48.208;11.174;2023-09-19T17:07:36;2.23;;;2.03;;
6177;SDS011;3122;48.208;11.174;2023-09-19T17:12:38;3.90;;;2.40;;
6177;SDS011;3122;48.208;11.174;2023-09-19T17:17:39;6.90;;;2.80;;
6177;SDS011;3122;48.208;11.174;2023-09-19T17:22:39;3.67;;;2.63;;
6177;SDS011;3122;48.208;11.174;2023-09-19T17:27:40;3.87;;;2.50;;
6177;SDS011;3122;48.208;11.174;2023-09-19T17:32:41;4.07;;;2.40;;
6177;SDS011;3122;48.208;11.174;2023-09-19T17:37:45;2.90;;;1.97;;
6177;SDS011;3122;48.208;11.174;2023-09-19T17:42:45;2.30;;;2.20;;
6177;SDS011;3122;48.208;11.174;2023-09-19T17:47:46;3.13;;;2.40;;
6177;SDS011;3122;48.208;11.174;2023-09-19T17:52:47;3.33;;;2.23;;
6177;SDS011;3122;48.208;11.174;2023-09-19T17:57:49;2.90;;;2.10;;
6177;SDS011;3122;48.208;11.174;2023-09-19T18:02:50;2.43;;;2.23;;
6177;SDS011;3122;48.208;11.174;2023-09-19T18:07:50;2.40;;;2.07;;
6177;SDS011;3122;48.208;11.174;2023-09-19T18:12:52;2.87;;;2.40;;
6177;SDS011;3122;48.208;11.174;2023-09-19T18:17:53;6.93;;;2.70;;
6177;SDS011;3122;48.208;11.174;2023-09-19T18:22:53;5.03;;;2.90;;
6177;SDS011;3122;48.208;11.174;2023-09-19T18:27:55;6.87;;;2.33;;
6177;SDS011;3122;48.208;11.174;2023-09-19T18:32:55;6.13;;;3.30;;
6177;SDS011;3122;48.208;11.174;2023-09-19T18:37:56;10.67;;;3.13;;
6177;SDS011;3122;48.208;11.174;2023-09-19T18:42:57;4.57;;;2.83;;
6177;SDS011;3122;48.208;11.174;2023-09-19T18:47:58;3.83;;;2.77;;
6177;SDS011;3122;48.208;11.174;2023-09-19T18:52:59;3.37;;;2.73;;
6177;SDS011;3122;48.208;11.174;2023-09-19T18:58:00;2.30;;;2.10;;
6177;SDS011;3122;48.208;11.174;2023-09-19T19:03:00;2.50;;;2.30;;
6177;SDS011;3122;48.208;11.174;2023-09-19T19:08:01;2.60;;;1.90;;
6177;SDS011;3122;48.208;11.174;2023-09-19T19:13:01;3.27;;;2.97;;
6177;SDS011;3122;48.208;11.174;2023-09-19T19:18:02;3.73;;;2.97;;
6177;SDS011;3122;48.208;11.174;2023-09-19T19:23:03;3.30;;;2.80;;
6177;SDS011;3122;48.208;11.174;2023-09-19T19:28:03;2.83;;;2.60;;
6177;SDS011;3122;48.208;11.174;2023-09-19T19:33:04;2.37;;;2.17;;
6177;SDS011;3122;48.208;11.174;2023-09-19T19:38:09;5.13;;;2.40;;
6177;SDS011;3122;48.208;11.174;2023-09-19T19:43:10;3.90;;;2.40;;
6177;SDS011;3122;48.208;11.174;2023-09-19T19:48:11;2.90;;;2.43;;
6177;SDS011;3122;48.208;11.174;2023-09-19T19:53:11;3.33;;;2.53;;
6177;SDS011;3122;48.208;11.174;2023-09-19T19:58:12;3.90;;;2.60;;
6177;SDS011;3122;48.208;11.174;2023-09-19T20:03:16;6.03;;;3.00;;
6177;SDS011;3122;48.208;11.174;2023-09-19T20:08:17;2.90;;;2.60;;
6177;SDS011;3122;48.208;11.174;2023-09-19T20:13:18;4.10;;;3.20;;
6177;SDS011;3122;48.208;11.174;2023-09-19T20:18:19;2.83;;;2.57;;
6177;SDS011;3122;48.208;11.174;2023-09-19T20:23:20;2.77;;;2.57;;
6177;SDS011;3122;48.208;11.174;2023-09-19T20:28:21;3.40;;;2.50;;
6177;SDS011;3122;48.208;11.174;2023-09-19T20:33:23;2.50;;;2.30;;
6177;SDS011;3122;48.208;11.174;2023-09-19T20:38:24;2.40;;;2.20;;
6177;SDS011;3122;48.208;11.174;2023-09-19T20:43:24;3.60;;;2.30;;
6177;SDS011;3122;48.208;11.174;2023-09-19T20:48:25;3.67;;;3.00;;
6177;SDS011;3122;48.208;11.174;2023-09-19T20:53:26;5.47;;;2.67;;
6177;SDS011;3122;48.208;11.174;2023-09-19T20:58:27;3.40;;;2.67;;
6177;SDS011;3122;48.208;11.174;2023-09-19T21:03:27;2.47;;;2.30;;
6177;SDS011;3122;48.208;11.174;2023-09-19T21:08:28;2.77;;;2.57;;
6177;SDS011;3122;48.208;11.174;2023-09-19T21:13:31;2.60;;;2.23;;
6177;SDS011;3122;48.208;11.174;2023-09-19T21:18:33;3.03;;;2.57;;
6177;SDS011;3122;48.208;11.174;2023-09-19T21:23:34;2.83;;;2.10;;
6177;SDS011;3122;48.208;11.174;2023-09-19T21:28:34;3.00;;;2.20;;
6177;SDS011;3122;48.208;11.174;2023-09-19T21:33:36;3.43;;;2.20;;
6177;SDS011;3122;48.208;11.174;2023-09-19T21:38:38;2.40;;;2.30;;
6177;SDS011;3122;48.208;11.174;2023-09-19T21:43:39;4.57;;;2.47;;
6177;SDS011;3122;48.208;11.174;2023-09-19T21:48:40;2.20;;;2.10;;
6177;SDS011;3122;48.208;11.174;2023-09-19T21:53:41;2.53;;;2.33;;
6177;SDS011;3122;48.208;11.174;2023-09-19T21:58:41;2.10;;;2.00;;
6177;SDS011;3122;48.208;11.174;2023-09-19T22:03:42;2.70;;;2.50;;
6177;SDS011;3122;48.208;11.174;2023-09-19T22:08:43;2.23;;;2.13;;
6177;SDS011;3122;48.208;11.174;2023-09-19T22:13:47;2.20;;;2.07;;
6177;SDS011;3122;48.208;11.174;2023-09-19T22:18:47;4.30;;;2.10;;
6177;SDS011;3122;48.208;11.174;2023-09-19T22:23:51;5.63;;;2.90;;
6177;SDS011;3122;48.208;11.174;2023-09-19T22:28:54;2.20;;;2.10;;
6177;SDS011;3122;48.208;11.174;2023-09-19T22:33:55;2.50;;;2.30;;
6177;SDS011;3122;48.208;11.174;2023-09-19T22:38:56;2.07;;;1.97;;
6177;SDS011;3122;48.208;11.174;2023-09-19T22:44:01;2.47;;;2.27;;
6177;SDS011;3122;48.208;11.174;2023-09-19T22:49:01;2.50;;;2.30;;
6177;SDS011;3122;48.208;11.174;2023-09-19T22:54:03;2.40;;;2.20;;
6177;SDS011;3122;48.208;11.174;2023-09-19T22:59:11;2.50;;;2.30;;
6177;SDS011;3122;48.208;11.174;2023-09-19T23:04:12;2.33;;;2.07;;
6177;SDS011;3122;48.208;11.174;2023-09-19T23:09:12;2.67;;;2.47;;
6177;SDS011;3122;48.208;11.174;2023-09-19T23:14:23;2.20;;;2.00;;
6177;SDS011;3122;48.208;11.174;2023-09-19T23:19:32;4.60;;;2.70;;
6177;SDS011;3122;48.208;11.174;2023-09-19T23:24:33;4.17;;;2.50;;
6177;SDS011;3122;48.208;11.174;2023-09-19T23:29:37;4.60;;;2.50;;
6177;SDS011;3122;48.208;11.174;2023-09-19T23:34:39;3.60;;;2.50;;
6177;SDS011;3122;48.208;11.174;2023-09-19T23:39:39;2.70;;;2.50;;
6177;SDS011;3122;48.208;11.174;2023-09-19T23:44:43;2.63;;;2.43;;
6177;SDS011;3122;48.208;11.174;2023-09-19T23:49:48;3.00;;;2.50;;
6177;SDS011;3122;48.208;11.174;2023-09-19T23:54:49;2.93;;;2.63;;
6177;SDS011;3122;48.208;11.174;2023-09-19T23:59:50;2.60;;;2.37;;
